Time;durP1;ratioP1;P1;durP2;ratioP2;P2;SDS_P1;SDS_P2;PMS_P1;PMS_P2;Temp;Humidity;BMP_temperature;BMP_pressure;BME280_temperature;BME280_humidity;BME280_pressure;Samples;Min_cycle;Max_cycle;Signal;HPM_P1;HPM_P2
2021/01/14 00:00:30;;;;;;;9.55;2.17;;;2.10;99.90;;;2.73;80.81;100626.00;5049315;28;20032;-82
2021/01/14 00:02:57;;;;;;;9.52;1.75;;;2.00;99.90;;;2.69;80.84;100630.53;5049282;28;20048;-83
2021/01/14 00:05:23;;;;;;;10.77;2.17;;;1.90;99.90;;;2.56;81.61;100626.63;5038494;28;20043;-81
2021/01/14 00:07:49;;;;;;;9.80;1.60;;;1.80;99.90;;;2.54;81.64;100641.81;5055892;28;20026;-81
2021/01/14 00:10:16;;;;;;;12.20;2.53;;;1.80;99.90;;;2.49;80.75;100626.22;5056606;28;20110;-82
2021/01/14 00:12:43;;;;;;;14.20;2.55;;;1.70;99.90;;;2.50;80.90;100636.13;5038064;28;20110;-82
2021/01/14 00:15:15;;;;;;;10.30;1.60;;;1.70;99.90;;;2.36;81.75;100632.53;5037974;28;20027;-80
2021/01/14 00:17:42;;;;;;;10.55;3.15;;;1.60;99.90;;;2.30;81.62;100635.69;5055240;28;20481;-82
2021/01/14 00:20:16;;;;;;;9.75;1.95;;;1.60;99.90;;;2.22;82.38;100636.34;5037134;28;20032;-80
2021/01/14 00:22:43;;;;;;;7.85;1.67;;;1.50;99.90;;;2.14;82.26;100646.16;5038174;28;20025;-81
2021/01/14 00:25:13;;;;;;;10.70;2.00;;;1.40;99.90;;;2.14;82.15;100640.66;5038146;28;20032;-81
2021/01/14 00:27:39;;;;;;;6.47;1.40;;;1.40;99.90;;;2.08;82.80;100652.88;5037727;28;20128;-81
2021/01/14 00:30:18;;;;;;;4.55;1.88;;;1.30;99.90;;;2.08;82.06;100650.13;5038146;28;20396;-80
2021/01/14 00:32:44;;;;;;;6.28;1.83;;;1.30;99.90;;;2.10;81.18;100650.63;5056436;28;20075;-81
2021/01/14 00:35:11;;;;;;;23.42;6.30;;;1.30;99.90;;;1.99;82.02;100658.25;5039393;28;20025;-80
2021/01/14 00:37:53;;;;;;;18.45;4.30;;;1.30;99.90;;;2.03;81.34;100652.94;5039201;28;20485;-81
2021/01/14 00:40:29;;;;;;;16.83;2.38;;;1.30;99.90;;;2.03;80.87;100663.97;5038385;28;20033;-81
2021/01/14 00:43:08;;;;;;;7.35;2.00;;;1.30;99.90;;;1.95;80.99;100659.16;5056743;28;20060;-81
2021/01/14 00:45:35;;;;;;;6.43;2.08;;;1.20;99.90;;;1.89;81.09;100655.69;5037956;28;20370;-81
2021/01/14 00:48:03;;;;;;;11.70;1.88;;;1.20;99.90;;;1.88;80.98;100662.28;5037930;28;20162;-82
2021/01/14 00:50:30;;;;;;;16.98;3.00;;;1.20;99.90;;;1.87;80.56;100652.38;5038365;28;20025;-82
2021/01/14 00:52:58;;;;;;;7.10;2.38;;;1.10;99.90;;;1.86;80.80;100658.22;5037660;28;20033;-80
2021/01/14 00:55:23;;;;;;;16.95;6.85;;;1.10;99.90;;;1.80;81.07;100656.66;5037586;28;20037;-80
2021/01/14 00:57:50;;;;;;;11.48;3.42;;;1.10;99.90;;;1.82;80.60;100658.00;5038168;28;20598;-81
2021/01/14 01:00:20;;;;;;;13.25;2.80;;;1.10;99.90;;;1.86;80.27;100666.47;5037749;28;20051;-81
2021/01/14 01:02:51;;;;;;;8.13;2.70;;;1.10;99.90;;;1.96;79.46;100656.09;5055585;28;20060;-82
2021/01/14 01:05:20;;;;;;;10.45;2.15;;;1.20;99.90;;;1.98;78.83;100661.31;5038006;28;20060;-82
2021/01/14 01:07:59;;;;;;;15.55;2.55;;;1.20;99.90;;;2.00;79.09;100670.09;5037954;28;20032;-83
2021/01/14 01:10:27;;;;;;;11.10;1.88;;;1.20;99.90;;;2.00;78.87;100664.56;5038512;28;20033;-81
2021/01/14 01:13:05;;;;;;;15.48;1.90;;;1.20;99.90;;;2.01;78.22;100661.53;5038227;28;20033;-82
2021/01/14 01:15:31;;;;;;;14.10;4.22;;;1.30;99.90;;;2.06;77.85;100677.97;5040115;28;20435;-81
2021/01/14 01:17:57;;;;;;;21.92;7.78;;;1.30;99.90;;;2.05;78.03;100675.53;5049210;28;20033;-82
2021/01/14 01:20:22;;;;;;;17.52;3.92;;;1.30;99.90;;;2.03;77.39;100667.53;5065297;28;20070;-80
2021/01/14 01:22:48;;;;;;;10.18;2.95;;;1.30;99.90;;;1.99;77.93;100666.50;5037023;28;20059;-82
2021/01/14 01:25:14;;;;;;;5.28;1.50;;;1.30;99.90;;;2.02;76.83;100673.38;5036738;28;20087;-81
2021/01/14 01:27:40;;;;;;;13.45;2.15;;;1.30;99.90;;;2.09;76.10;100662.75;5037032;28;20029;-81
2021/01/14 01:30:08;;;;;;;10.55;1.77;;;1.30;99.90;;;2.02;76.82;100670.63;5037066;28;20064;-83
2021/01/14 01:32:34;;;;;;;8.77;1.65;;;1.30;99.90;;;1.98;76.99;100681.41;5055202;28;20025;-80
2021/01/14 01:35:05;;;;;;;10.93;2.75;;;1.20;99.90;;;1.95;76.83;100684.78;5040251;28;20495;-80
2021/01/14 01:37:31;;;;;;;8.30;2.55;;;1.20;99.90;;;1.93;77.19;100683.41;5040718;28;20028;-81
2021/01/14 01:39:58;;;;;;;20.20;5.20;;;1.20;99.90;;;1.89;76.53;100682.41;5041117;28;20040;-81
2021/01/14 01:42:24;;;;;;;8.30;2.05;;;1.20;99.90;;;1.88;76.44;100695.34;5041043;28;20025;-83
2021/01/14 01:44:49;;;;;;;7.65;1.25;;;1.20;99.90;;;1.98;75.88;100697.13;5041430;28;20036;-81
2021/01/14 01:47:19;;;;;;;16.13;2.10;;;1.30;99.90;;;1.95;76.15;100694.97;5041454;28;20033;-81
2021/01/14 01:49:45;;;;;;;12.35;2.28;;;1.20;99.90;;;1.92;76.03;100703.84;5043056;28;20035;-82
2021/01/14 01:52:11;;;;;;;10.60;1.77;;;1.20;99.90;;;1.94;76.05;100707.09;5045419;28;20032;-84
2021/01/14 01:54:37;;;;;;;5.55;1.60;;;1.20;99.90;;;1.86;76.53;100694.03;5044457;28;20032;-83
2021/01/14 01:57:05;;;;;;;7.93;1.48;;;1.10;99.90;;;1.85;76.02;100703.38;5044218;28;20539;-83
2021/01/14 01:59:33;;;;;;;8.15;1.50;;;1.10;99.90;;;1.90;76.59;100703.28;5048488;28;20071;-82
2021/01/14 02:02:28;;;;;;;12.88;2.70;;;1.10;99.90;;;1.85;76.45;100708.91;5047696;28;20409;-82
2021/01/14 02:04:56;;;;;;;6.88;1.63;;;1.10;99.90;;;1.80;77.03;100714.50;5059310;28;20025;-81
2021/01/14 02:08:07;;;;;;;8.10;1.70;;;1.10;99.90;;;1.78;76.84;100711.19;5040265;28;20041;-82
2021/01/14 02:10:53;;;;;;;7.93;1.40;;;1.10;99.90;;;1.74;77.50;100713.72;5040361;28;20033;-82
2021/01/14 02:13:54;;;;;;;6.10;1.73;;;1.00;99.90;;;1.67;77.87;100713.28;5040023;28;20115;-81
2021/01/14 02:16:22;;;;;;;7.57;1.30;;;1.00;99.90;;;1.62;77.73;100716.13;5040258;28;20449;-80
2021/01/14 02:18:55;;;;;;;7.40;1.30;;;0.90;99.90;;;1.56;78.46;100720.06;5058577;28;20029;-81
2021/01/14 02:21:26;;;;;;;9.80;2.33;;;0.80;99.90;;;1.54;78.24;100714.84;5040919;28;20025;-81
2021/01/14 02:24:23;;;;;;;8.75;2.22;;;0.80;99.90;;;1.53;78.52;100712.41;5040498;28;20127;-80
2021/01/14 02:26:50;;;;;;;13.05;1.70;;;0.80;99.90;;;1.54;78.78;100714.03;5040220;28;20024;-84
2021/01/14 02:29:17;;;;;;;2.65;0.88;;;0.80;99.90;;;1.71;77.60;100714.31;5040070;28;20029;-81
2021/01/14 02:31:43;;;;;;;11.32;1.48;;;0.90;99.90;;;1.72;77.28;100732.50;5040168;28;20036;-82
2021/01/14 02:34:09;;;;;;;9.45;1.20;;;0.90;99.90;;;1.78;77.50;100725.78;5040098;28;20025;-82
2021/01/14 02:36:35;;;;;;;10.02;1.48;;;1.00;99.90;;;1.78;77.49;100720.28;5057985;28;20036;-81
2021/01/14 02:39:01;;;;;;;6.32;1.50;;;1.00;99.90;;;1.78;77.63;100738.75;5058966;28;20380;-79
2021/01/14 02:41:27;;;;;;;7.15;1.33;;;1.00;99.90;;;1.74;77.92;100732.19;5039942;28;20028;-80
2021/01/14 02:43:53;;;;;;;5.18;1.30;;;1.00;99.90;;;1.79;77.39;100737.63;5039897;28;20025;-81
2021/01/14 02:46:21;;;;;;;7.88;1.23;;;1.00;99.90;;;1.81;77.77;100746.41;5040298;28;20025;-80
2021/01/14 02:49:09;;;;;;;6.28;1.70;;;1.00;99.90;;;1.84;77.45;100745.81;5040070;28;20029;-81
2021/01/14 02:52:00;;;;;;;11.10;1.90;;;1.10;99.90;;;1.73;78.04;100749.84;5040673;28;20029;-83
2021/01/14 02:54:27;;;;;;;11.10;1.48;;;1.00;99.90;;;1.71;78.03;100754.81;5040323;28;20025;-80
2021/01/14 02:56:53;;;;;;;5.00;1.20;;;1.00;99.90;;;1.73;78.10;100771.88;5039857;28;20369;-81
2021/01/14 02:59:19;;;;;;;6.15;2.08;;;1.00;99.90;;;1.73;78.00;100764.44;5058200;28;20099;-81
2021/01/14 03:01:45;;;;;;;5.45;1.50;;;1.00;99.90;;;1.71;78.30;100768.56;5041619;28;20491;-82
2021/01/14 03:04:11;;;;;;;9.25;1.58;;;1.00;99.90;;;1.67;78.36;100775.81;5040747;28;20037;-82
2021/01/14 03:06:40;;;;;;;9.75;1.55;;;0.90;99.90;;;1.61;79.05;100777.00;5039981;28;20040;-81
2021/01/14 03:09:07;;;;;;;8.15;1.25;;;0.90;99.90;;;1.54;79.24;100772.66;5040330;28;20025;-81
2021/01/14 03:11:35;;;;;;;9.93;1.42;;;0.80;99.90;;;1.53;79.47;100782.03;5039727;28;20037;-83
2021/01/14 03:14:02;;;;;;;13.60;1.52;;;0.80;99.90;;;1.54;79.31;100789.16;5040437;28;20094;-81
2021/01/14 03:16:28;;;;;;;6.50;1.42;;;0.80;99.90;;;1.46;79.96;100784.31;5040156;28;20021;-82
2021/01/14 03:18:54;;;;;;;7.28;1.80;;;0.70;99.90;;;1.47;79.77;100791.47;5040032;28;20048;-81
2021/01/14 03:21:24;;;;;;;11.98;1.33;;;0.80;99.90;;;1.47;80.24;100785.16;5041065;28;20029;-81
2021/01/14 03:23:52;;;;;;;6.65;1.35;;;0.70;99.90;;;1.49;79.65;100792.00;5041534;28;20025;-80
2021/01/14 03:26:20;;;;;;;9.00;1.92;;;0.70;99.90;;;1.43;79.98;100806.09;5058588;28;20025;-82
2021/01/14 03:28:49;;;;;;;6.20;1.55;;;0.70;99.90;;;1.39;80.24;100805.88;5040898;28;20060;-81
2021/01/14 03:31:17;;;;;;;9.00;1.23;;;0.70;99.90;;;1.49;80.00;100807.69;5040466;28;20033;-80
2021/01/14 03:33:46;;;;;;;10.60;2.00;;;0.70;99.90;;;1.58;79.40;100805.91;5040435;28;20433;-81
2021/01/14 03:36:19;;;;;;;6.93;1.45;;;0.80;99.90;;;1.54;79.51;100802.13;5040919;28;20056;-81
2021/01/14 03:38:46;;;;;;;9.15;1.75;;;0.80;99.90;;;1.51;80.19;100813.69;5058735;28;20092;-81
2021/01/14 03:41:18;;;;;;;9.00;1.20;;;0.70;99.90;;;1.50;80.43;100818.41;5040854;28;20484;-82
2021/01/14 03:43:45;;;;;;;6.63;1.55;;;0.70;99.90;;;1.52;80.61;100818.09;5051352;28;20096;-83
2021/01/14 03:46:21;;;;;;;7.95;1.52;;;0.70;99.90;;;1.51;80.73;100816.44;5055831;28;20109;-81
2021/01/14 03:48:49;;;;;;;10.77;2.22;;;0.80;99.90;;;1.47;80.80;100820.94;5039300;28;20051;-80
2021/01/14 03:51:23;;;;;;;6.20;1.20;;;0.70;99.90;;;1.43;80.83;100817.94;5038539;28;20057;-81
2021/01/14 03:53:52;;;;;;;6.90;1.83;;;0.70;99.90;;;1.36;81.40;100813.88;5038341;28;20029;-81
2021/01/14 03:56:18;;;;;;;2.75;0.80;;;0.60;99.90;;;1.29;81.80;100802.41;5056047;28;20036;-80
2021/01/14 03:58:45;;;;;;;3.35;1.17;;;0.60;99.90;;;1.32;81.77;100812.81;5038697;28;20082;-81
2021/01/14 04:01:11;;;;;;;9.77;1.50;;;0.60;99.90;;;1.36;81.54;100822.16;5039748;28;20106;-80
2021/01/14 04:03:43;;;;;;;10.70;1.48;;;0.60;99.90;;;1.34;81.53;100816.94;5039411;28;20025;-81
2021/01/14 04:06:13;;;;;;;7.32;1.55;;;0.60;99.90;;;1.33;81.66;100820.81;5039265;28;20025;-81
2021/01/14 04:08:40;;;;;;;5.60;1.15;;;0.60;99.90;;;1.27;81.92;100818.41;5037755;28;20029;-80
2021/01/14 04:11:09;;;;;;;9.02;1.42;;;0.60;99.90;;;1.21;82.42;100814.06;5038055;28;20029;-82
2021/01/14 04:13:35;;;;;;;7.90;1.50;;;0.50;99.90;;;1.14;82.97;100824.59;5038167;28;20039;-82
2021/01/14 04:16:02;;;;;;;7.55;1.45;;;0.40;99.90;;;1.05;82.90;100821.66;5038161;28;20029;-81
2021/01/14 04:18:28;;;;;;;10.25;1.27;;;0.30;99.90;;;0.96;83.29;100826.16;5038350;28;20197;-82
2021/01/14 04:20:54;;;;;;;7.45;1.38;;;0.30;99.90;;;0.92;83.49;100817.69;5042219;28;20061;-80
2021/01/14 04:23:20;;;;;;;8.27;1.90;;;0.20;99.90;;;0.88;83.78;100816.59;5058188;28;20411;-81
2021/01/14 04:25:46;;;;;;;6.85;1.42;;;0.20;99.90;;;0.85;83.66;100817.19;5037852;28;20231;-83
2021/01/14 04:28:15;;;;;;;6.05;1.75;;;0.10;99.90;;;0.84;84.08;100831.22;5037822;28;20060;-82
2021/01/14 04:30:40;;;;;;;7.93;1.33;;;0.10;99.90;;;0.84;84.31;100843.03;5037640;28;20033;-81
2021/01/14 04:33:12;;;;;;;8.57;2.65;;;0.10;99.90;;;0.95;84.05;100830.84;5038139;28;20036;-82
2021/01/14 04:35:55;;;;;;;2.95;1.30;;;0.20;99.90;;;0.98;83.63;100823.94;5037642;28;20120;-82
2021/01/14 04:38:25;;;;;;;7.18;1.42;;;0.20;99.90;;;0.95;83.59;100824.53;5038651;28;20057;-81
2021/01/14 04:41:00;;;;;;;7.90;2.22;;;0.20;99.90;;;0.93;84.03;100824.00;5039411;28;20036;-83
2021/01/14 04:43:31;;;;;;;14.43;1.95;;;0.20;99.90;;;0.91;84.06;100823.44;5043682;28;20599;-82
2021/01/14 04:46:06;;;;;;;5.28;1.73;;;0.20;99.90;;;0.90;83.87;100832.84;5046491;28;20045;-83
2021/01/14 04:48:48;;;;;;;10.25;1.80;;;0.20;99.90;;;0.86;84.06;100838.09;5056637;28;20096;-81
2021/01/14 04:51:20;;;;;;;5.13;1.38;;;0.20;99.90;;;0.82;84.49;100837.00;5055338;28;20134;-80
2021/01/14 04:53:50;;;;;;;6.10;1.48;;;0.10;99.90;;;0.79;84.89;100834.03;5036752;28;20029;-82
2021/01/14 04:56:19;;;;;;;6.45;1.63;;;0.10;99.90;;;0.78;85.08;100838.69;5036081;28;20024;-81
2021/01/14 04:58:49;;;;;;;8.55;1.80;;;0.10;99.90;;;0.79;85.23;100834.84;5035750;28;20033;-81
2021/01/14 05:01:20;;;;;;;10.00;1.55;;;0.10;99.90;;;0.84;84.91;100839.47;5035670;28;20369;-80
2021/01/14 05:03:51;;;;;;;6.18;1.45;;;0.10;99.90;;;0.87;85.07;100845.19;5036455;28;20551;-84
2021/01/14 05:06:25;;;;;;;9.07;2.60;;;0.10;99.90;;;0.85;85.35;100847.44;5037070;28;20116;-81
2021/01/14 05:09:07;;;;;;;7.43;2.13;;;0.10;99.90;;;0.84;85.36;100845.78;5042463;28;20063;-82
2021/01/14 05:11:58;;;;;;;7.70;1.65;;;0.10;99.90;;;0.83;85.50;100848.84;5046481;28;20100;-84
2021/01/14 05:14:24;;;;;;;9.40;1.95;;;0.10;99.90;;;0.79;85.62;100840.34;5054310;28;20387;-81
2021/01/14 05:16:52;;;;;;;7.25;1.98;;;0.10;99.90;;;0.77;85.57;100841.75;5051414;28;20021;-82
2021/01/14 05:19:19;;;;;;;6.43;1.48;;;0.00;99.90;;;0.77;85.72;100845.28;5042456;28;20488;-82
2021/01/14 05:21:46;;;;;;;5.93;1.90;;;0.00;99.90;;;0.75;85.67;100843.94;5039480;28;20032;-82
2021/01/14 05:24:16;;;;;;;8.98;2.50;;;0.10;99.90;;;0.71;86.04;100845.63;5056444;28;20036;-80
2021/01/14 05:26:45;;;;;;;8.38;1.40;;;0.00;99.90;;;0.66;85.95;100846.50;5038658;28;20029;-79
2021/01/14 05:29:20;;;;;;;6.70;1.67;;;0.00;99.90;;;0.69;85.88;100851.44;5040411;28;20449;-79
2021/01/14 05:31:50;;;;;;;8.90;1.40;;;0.00;99.90;;;0.73;85.99;100848.94;5038322;28;20025;-81
2021/01/14 05:34:17;;;;;;;7.45;1.73;;;0.00;99.90;;;0.74;85.61;100848.63;5038587;28;20182;-80
2021/01/14 05:37:03;;;;;;;10.30;1.55;;;0.00;99.90;;;0.78;85.60;100857.13;5038438;28;20037;-80
2021/01/14 05:39:30;;;;;;;11.82;2.28;;;0.00;99.90;;;0.78;85.61;100849.69;5038749;28;20036;-81
2021/01/14 05:42:08;;;;;;;10.10;1.65;;;0.10;99.90;;;0.79;85.70;100853.25;5056238;28;20461;-81
2021/01/14 05:44:44;;;;;;;4.30;1.10;;;0.10;99.90;;;0.75;85.61;100854.94;5055547;28;20485;-83
2021/01/14 05:47:26;;;;;;;7.65;1.75;;;0.00;99.90;;;0.74;85.91;100856.06;5037901;28;20029;-81
2021/01/14 05:50:07;;;;;;;11.05;2.28;;;0.00;99.90;;;0.75;85.84;100860.44;5055971;28;20467;-83
2021/01/14 05:52:33;;;;;;;6.65;1.80;;;0.00;99.90;;;0.72;85.79;100859.09;5037922;28;20033;-84
2021/01/14 05:55:10;;;;;;;9.45;1.80;;;0.00;99.90;;;0.72;86.23;100870.09;5056328;28;20465;-84
2021/01/14 05:57:39;;;;;;;6.93;2.13;;;0.00;99.90;;;0.69;86.39;100861.59;5038598;28;20029;-84
2021/01/14 06:00:13;;;;;;;8.52;1.67;;;0.00;99.90;;;0.66;86.43;100874.00;5038449;28;20029;-83
2021/01/14 06:02:39;;;;;;;7.25;1.50;;;0.00;99.90;;;0.64;86.55;100884.47;5037733;28;20025;-81
2021/01/14 06:05:32;;;;;;;6.65;1.67;;;-0.10;99.90;;;0.60;86.37;100888.88;5038090;28;20029;-82
2021/01/14 06:08:03;;;;;;;8.68;1.85;;;-0.10;99.90;;;0.57;86.75;100889.47;5037803;28;20036;-82
2021/01/14 06:10:34;;;;;;;10.65;2.08;;;-0.10;99.90;;;0.55;86.69;100894.41;5037872;28;20029;-81
2021/01/14 06:13:01;;;;;;;10.98;2.20;;;-0.10;99.90;;;0.50;86.68;100900.78;5049824;28;20040;-82
2021/01/14 06:15:28;;;;;;;8.98;1.60;;;-0.20;99.90;;;0.46;86.97;100912.59;5056613;28;20043;-81
2021/01/14 06:18:08;;;;;;;8.80;2.20;;;-0.20;99.90;;;0.42;87.08;100904.13;5038084;28;20083;-85
2021/01/14 06:20:51;;;;;;;7.10;1.70;;;-0.20;99.90;;;0.35;87.16;100906.34;5038575;28;20059;-81
2021/01/14 06:23:23;;;;;;;4.90;1.50;;;-0.30;99.90;;;0.32;87.09;100912.41;5038216;28;20049;-81
2021/01/14 06:25:55;;;;;;;9.27;2.60;;;-0.30;99.90;;;0.32;87.26;100911.63;5038066;28;20082;-83
2021/01/14 06:28:35;;;;;;;5.32;1.80;;;-0.40;99.90;;;0.34;87.08;100915.72;5056059;28;20032;-84
2021/01/14 06:31:08;;;;;;;5.72;1.67;;;-0.40;99.90;;;0.32;87.14;100917.91;5055793;28;20036;-83
2021/01/14 06:33:36;;;;;;;12.02;2.13;;;-0.40;99.90;;;0.30;87.26;100917.38;5038488;28;20037;-81
2021/01/14 06:36:12;;;;;;;7.85;2.00;;;-0.40;99.90;;;0.28;87.49;100918.78;5037324;28;20029;-81
2021/01/14 06:39:11;;;;;;;8.02;2.05;;;-0.40;99.90;;;0.27;87.58;100919.88;5037912;28;20025;-84
2021/01/14 06:41:41;;;;;;;8.70;1.90;;;-0.40;99.90;;;0.32;87.73;100922.59;5055646;28;20559;-82
2021/01/14 06:44:15;;;;;;;7.25;2.20;;;-0.40;99.90;;;0.36;87.86;100929.97;5038021;28;20048;-81
2021/01/14 06:46:42;;;;;;;9.95;3.25;;;-0.30;99.90;;;0.44;87.51;100945.88;5038557;28;20116;-81
2021/01/14 06:49:14;;;;;;;11.35;3.13;;;-0.30;99.90;;;0.47;87.88;100937.06;5038302;28;20036;-80
2021/01/14 06:51:52;;;;;;;10.32;2.20;;;-0.20;99.90;;;0.52;87.86;100945.28;5037354;28;20033;-83
2021/01/14 06:54:20;;;;;;;13.07;2.55;;;-0.20;99.90;;;0.59;87.72;100939.47;5037888;28;20021;-82
2021/01/14 06:57:15;;;;;;;9.00;2.33;;;-0.10;99.90;;;0.65;87.57;100943.00;5036991;28;20434;-81
2021/01/14 06:59:43;;;;;;;11.27;2.80;;;0.00;99.90;;;0.65;87.43;100935.56;5053588;28;20021;-82
2021/01/14 07:02:54;;;;;;;6.85;2.42;;;0.00;99.90;;;0.72;87.36;100946.25;5037050;28;20548;-82
2021/01/14 07:05:51;;;;;;;8.68;2.35;;;0.00;99.90;;;0.75;87.54;100948.41;5036566;28;20025;-83
2021/01/14 07:08:42;;;;;;;7.85;2.75;;;0.10;99.90;;;0.82;87.48;100952.50;5037365;28;20024;-82
2021/01/14 07:11:22;;;;;;;7.80;2.42;;;0.10;99.90;;;0.86;87.06;100963.75;5035610;28;20094;-81
2021/01/14 07:13:53;;;;;;;10.82;2.40;;;0.10;99.90;;;0.89;87.28;100964.00;5036149;28;20040;-81
2021/01/14 07:16:27;;;;;;;8.05;2.80;;;0.20;99.90;;;0.95;86.82;100968.34;5036334;28;20498;-81
2021/01/14 07:18:55;;;;;;;12.35;2.28;;;0.20;99.90;;;1.04;86.08;100963.88;5054233;28;20028;-82
2021/01/14 07:21:48;;;;;;;9.73;3.60;;;0.30;99.90;;;1.15;85.53;100958.28;5036686;28;20033;-81
2021/01/14 07:24:26;;;;;;;9.40;2.55;;;0.40;99.90;;;1.21;84.45;100968.16;5051912;28;20405;-83
2021/01/14 07:27:03;;;;;;;6.90;1.92;;;0.40;99.90;;;1.31;83.43;100966.13;5036399;28;20029;-82
2021/01/14 07:29:33;;;;;;;14.70;2.70;;;0.50;99.90;;;1.38;82.75;100979.56;5035263;28;20040;-81
2021/01/14 07:32:00;;;;;;;8.65;2.60;;;0.60;99.90;;;1.39;82.41;100971.00;5054530;28;20025;-81
2021/01/14 07:34:45;;;;;;;9.30;3.00;;;0.60;99.90;;;1.42;82.70;100972.34;5036621;28;20021;-83
2021/01/14 07:37:18;;;;;;;21.15;3.97;;;0.70;99.90;;;1.44;82.50;100979.22;5035923;28;20025;-81
2021/01/14 07:39:57;;;;;;;11.82;2.60;;;0.70;99.90;;;1.50;82.39;100977.25;5036663;28;20037;-82
2021/01/14 07:42:31;;;;;;;8.18;2.45;;;0.70;99.90;;;1.47;81.18;100980.56;5053905;28;20040;-80
2021/01/14 07:45:13;;;;;;;8.95;2.50;;;0.70;99.90;;;1.47;80.79;100992.41;5037129;28;20020;-80
2021/01/14 07:47:39;;;;;;;9.95;2.58;;;0.80;99.90;;;1.50;80.19;100997.34;5037267;28;20052;-84
2021/01/14 07:50:28;;;;;;;9.70;2.97;;;0.80;99.90;;;1.57;78.98;100999.75;5034980;28;20047;-81
2021/01/14 07:53:17;;;;;;;7.53;2.65;;;0.80;99.90;;;1.55;78.68;101008.28;5053847;28;20021;-83
2021/01/14 07:57:05;;;;;;;8.30;3.00;;;0.90;99.90;;;1.55;78.80;101008.28;5036336;28;20032;-81
2021/01/14 07:59:33;;;;;;;8.05;2.95;;;0.90;99.90;;;1.59;78.10;101011.28;5023619;28;20067;-81
2021/01/14 08:02:09;;;;;;;9.05;3.40;;;0.90;99.90;;;1.62;78.17;101018.97;5036759;28;20043;-81
2021/01/14 08:04:48;;;;;;;12.27;3.83;;;0.90;99.90;;;1.54;77.65;101023.16;5035208;28;20033;-82
2021/01/14 08:07:26;;;;;;;8.35;3.67;;;0.90;99.90;;;1.59;77.44;101019.53;5035632;28;20086;-82
2021/01/14 08:09:53;;;;;;;10.68;3.75;;;0.90;99.90;;;1.50;76.81;101021.28;5035868;28;20047;-80
2021/01/14 08:12:22;;;;;;;10.82;3.75;;;1.00;99.90;;;1.60;76.76;101037.72;5036063;28;20029;-82
2021/01/14 08:14:49;;;;;;;7.32;3.15;;;0.90;99.90;;;1.56;76.22;101036.66;5035691;28;20403;-81
2021/01/14 08:17:27;;;;;;;8.25;2.95;;;0.90;99.90;;;1.58;75.45;101035.25;5052877;28;20540;-82
2021/01/14 08:19:55;;;;;;;7.15;4.07;;;0.90;99.90;;;1.63;75.06;101039.88;5035634;28;20151;-82
2021/01/14 08:22:22;;;;;;;6.28;2.97;;;1.00;99.90;;;1.66;74.79;101035.72;5035739;28;20036;-83
2021/01/14 08:24:59;;;;;;;5.28;2.92;;;1.00;99.90;;;1.67;74.21;101040.94;5035609;28;20040;-82
2021/01/14 08:27:37;;;;;;;7.05;3.42;;;1.00;99.90;;;1.74;74.38;101041.41;5036123;28;20039;-81
2021/01/14 08:30:14;;;;;;;8.55;3.90;;;1.00;99.90;;;1.79;74.20;101037.81;5053867;28;20052;-80
2021/01/14 08:32:59;;;;;;;10.18;3.90;;;1.10;99.90;;;1.81;74.12;101047.41;5036775;28;20036;-80
2021/01/14 08:35:46;;;;;;;13.80;4.30;;;1.10;99.90;;;1.74;73.51;101030.41;5036580;28;20025;-80
2021/01/14 08:38:19;;;;;;;11.93;4.40;;;1.10;99.90;;;1.82;73.38;101046.31;5036394;28;20193;-82
2021/01/14 08:40:46;;;;;;;6.45;3.97;;;1.10;99.90;;;1.85;73.93;101036.66;5035453;28;20397;-83
2021/01/14 08:43:21;;;;;;;5.10;3.33;;;1.20;99.90;;;1.87;73.68;101051.75;5036457;28;20025;-84
2021/01/14 08:45:53;;;;;;;8.93;3.95;;;1.20;99.90;;;1.88;73.88;101047.91;5036471;28;20059;-82
2021/01/14 08:48:38;;;;;;;8.20;3.40;;;1.20;99.90;;;1.93;74.42;101045.09;5040199;28;20037;-81
2021/01/14 08:51:04;;;;;;;11.10;4.25;;;1.20;99.90;;;1.99;74.20;101048.63;5049868;28;20052;-82
2021/01/14 08:53:38;;;;;;;7.90;3.22;;;1.20;99.90;;;2.01;73.34;101040.88;5056790;28;20021;-80
2021/01/14 08:56:16;;;;;;;15.75;3.72;;;1.30;99.90;;;2.05;73.08;101044.72;5045988;28;20067;-84
2021/01/14 08:58:49;;;;;;;8.48;5.05;;;1.30;99.90;;;2.12;73.67;101050.66;5035764;28;20078;-81
2021/01/14 09:01:26;;;;;;;8.35;3.85;;;1.30;99.90;;;2.18;73.68;101049.53;5035911;28;20032;-84
2021/01/14 09:03:55;;;;;;;6.00;4.20;;;1.40;99.90;;;2.26;73.68;101051.63;5036302;28;20025;-81
2021/01/14 09:06:38;;;;;;;7.07;3.80;;;1.40;99.90;;;2.27;73.05;101049.69;5035853;28;20032;-83
2021/01/14 09:09:15;;;;;;;8.18;3.05;;;1.50;99.90;;;2.29;72.56;101059.31;5037344;28;20028;-82
2021/01/14 09:11:43;;;;;;;9.95;3.45;;;1.50;99.90;;;2.32;72.17;101055.94;5041257;28;20037;-82
2021/01/14 09:14:15;;;;;;;7.35;3.13;;;1.60;99.90;;;2.40;72.67;101057.25;5036138;28;20029;-80
2021/01/14 09:16:49;;;;;;;7.80;3.17;;;1.60;99.90;;;2.43;72.86;101063.00;5035478;28;20436;-81
2021/01/14 09:19:21;;;;;;;8.30;3.55;;;1.60;99.90;;;2.49;72.85;101059.06;5035866;28;20025;-80
2021/01/14 09:21:48;;;;;;;9.93;3.75;;;1.60;99.90;;;2.58;72.90;101059.22;5036135;28;20536;-81
2021/01/14 09:24:17;;;;;;;9.40;3.28;;;1.70;99.90;;;2.61;72.70;101061.41;5035781;28;20718;-83
2021/01/14 09:26:50;;;;;;;4.72;3.30;;;1.70;99.90;;;2.67;72.84;101068.47;5053242;28;20037;-83
2021/01/14 09:29:18;;;;;;;6.38;2.92;;;1.70;99.90;;;2.73;73.31;101064.53;5035059;28;20033;-84
2021/01/14 09:31:44;;;;;;;9.80;3.70;;;1.80;99.90;;;2.91;72.75;101072.03;5035026;28;20037;-81
2021/01/14 09:34:10;;;;;;;7.32;3.17;;;2.00;99.90;;;3.10;71.81;101072.03;5035436;28;20469;-82
2021/01/14 09:36:37;;;;;;;9.00;3.58;;;2.10;99.90;;;3.32;71.23;101063.97;5035466;28;20036;-83
2021/01/14 09:39:07;;;;;;;6.13;3.30;;;2.30;99.90;;;3.36;69.75;101072.47;5036836;28;20369;-82
2021/01/14 09:41:38;;;;;;;7.00;3.58;;;2.40;99.90;;;3.27;69.41;101077.88;5035346;28;20477;-81
2021/01/14 09:44:15;;;;;;;8.27;3.88;;;2.40;99.90;;;3.26;69.44;101086.44;5035852;28;20060;-82
2021/01/14 09:46:47;;;;;;;7.13;3.85;;;2.30;99.90;;;3.23;70.29;101089.78;5054188;28;20052;-84
2021/01/14 09:49:21;;;;;;;11.50;3.38;;;2.40;99.90;;;3.35;69.30;101090.16;5053632;28;20029;-82
2021/01/14 09:51:54;;;;;;;12.20;4.03;;;2.50;99.90;;;3.33;68.96;101084.94;5038901;28;20037;-82
2021/01/14 09:54:23;;;;;;;8.70;3.25;;;2.40;99.90;;;3.29;69.03;101086.66;5037054;28;20052;-82
2021/01/14 09:56:59;;;;;;;12.95;3.20;;;2.40;99.90;;;3.28;69.01;101084.19;5056322;28;20025;-82
2021/01/14 09:59:34;;;;;;;11.48;2.95;;;2.40;99.90;;;3.16;68.71;101088.22;5039241;28;20072;-81
2021/01/14 10:02:24;;;;;;;7.32;2.63;;;2.40;99.90;;;3.23;69.54;101085.09;5039612;28;20033;-82
2021/01/14 10:04:59;;;;;;;16.17;3.92;;;2.40;99.90;;;3.23;69.75;101095.31;5038895;28;20025;-82
2021/01/14 10:07:28;;;;;;;8.40;3.72;;;2.40;99.90;;;3.12;69.17;101092.69;5038197;28;20072;-83
2021/01/14 10:09:56;;;;;;;9.05;3.28;;;2.30;99.90;;;3.14;69.34;101081.38;5041407;28;20075;-83
2021/01/14 10:12:22;;;;;;;8.73;3.30;;;2.30;99.90;;;3.15;69.57;101091.28;5039223;28;20026;-82
2021/01/14 10:14:48;;;;;;;9.10;3.25;;;2.40;99.90;;;3.17;69.65;101092.63;5057160;28;20036;-82
2021/01/14 10:17:17;;;;;;;11.43;4.05;;;2.30;99.90;;;3.12;69.92;101089.13;5038338;28;20112;-82
2021/01/14 10:19:50;;;;;;;8.48;3.90;;;2.30;99.90;;;3.19;69.35;101090.38;5037898;28;20067;-83
2021/01/14 10:22:17;;;;;;;6.65;3.13;;;2.30;99.90;;;3.20;70.29;101091.22;5037910;28;20025;-82
2021/01/14 10:24:43;;;;;;;9.98;3.50;;;2.40;99.90;;;3.19;69.84;101092.31;5037875;28;20513;-84
2021/01/14 10:27:18;;;;;;;8.70;3.45;;;2.40;99.90;;;2.95;69.92;101097.94;5037667;28;20033;-82
2021/01/14 10:29:46;;;;;;;11.07;2.78;;;2.30;99.90;;;3.03;69.95;101083.44;5037486;28;20396;-80
2021/01/14 10:32:22;;;;;;;7.03;3.22;;;2.30;99.90;;;2.96;70.60;101087.69;5037666;28;20035;-84
2021/01/14 10:34:55;;;;;;;10.25;3.00;;;2.20;99.90;;;3.04;71.06;101085.09;5037919;28;20024;-84
2021/01/14 10:37:31;;;;;;;9.27;3.40;;;2.30;99.90;;;3.08;71.33;101088.09;5037939;28;20033;-84
2021/01/14 10:40:00;;;;;;;9.00;3.28;;;2.30;99.90;;;3.00;70.72;101083.22;5055215;28;20037;-83
2021/01/14 10:42:38;;;;;;;11.57;5.40;;;2.30;99.90;;;3.00;71.45;101088.75;5038294;28;20044;-87
2021/01/14 10:45:11;;;;;;;10.70;4.05;;;2.30;99.90;;;3.06;71.24;101088.38;5055011;28;20111;-85